TAM3854 SBGO-SBBR
Flight info
| Callsign | TAM3854 |
|---|---|
| Flight time | 0h 24m |
| Altitude | 17000 |
| Route | LODUV Z15 PAJEM |
| Aircraft | A319/M-SDE3FGHIRWY/LB1 |
Departure
| Time | 2026-04-20 21:17 |
|---|---|
| Airport | Santa Genoveva International Airport (SBGO) |
Arrival
| Time | 2026-04-20 21:41 |
|---|---|
| Airport | Presidente Juscelino Kubitschek International Airport (SBBR) |
| Time | Latitude | Longitude | Altitude | Speed | Heading |
|---|---|---|---|---|---|
| 2026-04-20 21:02 | -16.62976 | -49.21532 | 2435 ft | 0 kts | 64° |
| 2026-04-20 21:08 | -16.62981 | -49.21541 | 2431 ft | 4 kts | 66° |
| 2026-04-20 21:08 | -16.62989 | -49.21567 | 2431 ft | 4 kts | 83° |
| 2026-04-20 21:08 | -16.62989 | -49.21593 | 2431 ft | 2 kts | 102° |
| 2026-04-20 21:08 | -16.62989 | -49.21594 | 2431 ft | 0 kts | 102° |
| 2026-04-20 21:11 | -16.62999 | -49.21584 | 2432 ft | 3 kts | 149° |
| 2026-04-20 21:11 | -16.63030 | -49.21579 | 2432 ft | 5 kts | 167° |
| 2026-04-20 21:11 | -16.63065 | -49.21556 | 2434 ft | 7 kts | 142° |
| 2026-04-20 21:12 | -16.63102 | -49.21524 | 2432 ft | 7 kts | 137° |
| 2026-04-20 21:12 | -16.63132 | -49.21484 | 2436 ft | 7 kts | 124° |
| 2026-04-20 21:12 | -16.63161 | -49.21438 | 2432 ft | 8 kts | 122° |
| 2026-04-20 21:12 | -16.63190 | -49.21386 | 2434 ft | 8 kts | 119° |
| 2026-04-20 21:13 | -16.63220 | -49.21334 | 2435 ft | 8 kts | 121° |
| 2026-04-20 21:13 | -16.63250 | -49.21281 | 2434 ft | 9 kts | 120° |
| 2026-04-20 21:13 | -16.63280 | -49.21227 | 2434 ft | 9 kts | 121° |
| 2026-04-20 21:13 | -16.63311 | -49.21172 | 2433 ft | 9 kts | 120° |
| 2026-04-20 21:14 | -16.63347 | -49.21108 | 2437 ft | 11 kts | 120° |
| 2026-04-20 21:14 | -16.63391 | -49.21044 | 2437 ft | 12 kts | 141° |
| 2026-04-20 21:14 | -16.63482 | -49.21013 | 2438 ft | 16 kts | 167° |
| 2026-04-20 21:14 | -16.63601 | -49.21016 | 2439 ft | 19 kts | 208° |
| 2026-04-20 21:15 | -16.63694 | -49.21071 | 2439 ft | 16 kts | 209° |
| 2026-04-20 21:15 | -16.63748 | -49.21128 | 2437 ft | 6 kts | 284° |
| 2026-04-20 21:15 | -16.63742 | -49.21140 | 2439 ft | 0 kts | 298° |
| 2026-04-20 21:16 | -16.63737 | -49.21150 | 2435 ft | 6 kts | 298° |
| 2026-04-20 21:16 | -16.63623 | -49.21352 | 2439 ft | 66 kts | 301° |
| 2026-04-20 21:16 | -16.63282 | -49.21959 | 2434 ft | 126 kts | 300° |
| 2026-04-20 21:17 | -16.62788 | -49.22828 | 2754 ft | 144 kts | 300° |
| 2026-04-20 21:17 | -16.62274 | -49.23729 | 3352 ft | 145 kts | 299° |
| 2026-04-20 21:17 | -16.61736 | -49.24690 | 3577 ft | 163 kts | 298° |
| 2026-04-20 21:17 | -16.61130 | -49.25780 | 3770 ft | 184 kts | 299° |
| 2026-04-20 21:18 | -16.60445 | -49.27007 | 3952 ft | 206 kts | 299° |
| 2026-04-20 21:18 | -16.59679 | -49.28374 | 4131 ft | 232 kts | 299° |
| 2026-04-20 21:18 | -16.58832 | -49.29887 | 4472 ft | 256 kts | 300° |
| 2026-04-20 21:18 | -16.57894 | -49.31559 | 4960 ft | 276 kts | 300° |
| 2026-04-20 21:19 | -16.56904 | -49.33314 | 5762 ft | 282 kts | 301° |
| 2026-04-20 21:19 | -16.55602 | -49.34844 | 6593 ft | 288 kts | 328° |
| 2026-04-20 21:19 | -16.53698 | -49.35455 | 7419 ft | 291 kts | 1° |
| 2026-04-20 21:20 | -16.50402 | -49.33371 | 9145 ft | 292 kts | 65° |
| 2026-04-20 21:20 | -16.49831 | -49.31377 | 10028 ft | 292 kts | 81° |
| 2026-04-20 21:20 | -16.49479 | -49.29274 | 10861 ft | 295 kts | 81° |
| 2026-04-20 21:20 | -16.49130 | -49.27160 | 11655 ft | 298 kts | 81° |
| 2026-04-20 21:21 | -16.48778 | -49.25011 | 12440 ft | 302 kts | 81° |
| 2026-04-20 21:21 | -16.48352 | -49.22846 | 13209 ft | 306 kts | 76° |
| 2026-04-20 21:21 | -16.47692 | -49.20746 | 13942 ft | 310 kts | 70° |
| 2026-04-20 21:21 | -16.46971 | -49.18593 | 14456 ft | 321 kts | 73° |
| 2026-04-20 21:22 | -16.46305 | -49.16292 | 14622 ft | 341 kts | 75° |
| 2026-04-20 21:22 | -16.45656 | -49.13869 | 15074 ft | 350 kts | 76° |
| 2026-04-20 21:22 | -16.45040 | -49.11423 | 15635 ft | 354 kts | 76° |
| 2026-04-20 21:22 | -16.44432 | -49.08920 | 16216 ft | 358 kts | 77° |
| 2026-04-20 21:23 | -16.43827 | -49.06381 | 16821 ft | 363 kts | 77° |
| 2026-04-20 21:23 | -16.43220 | -49.03820 | 17017 ft | 364 kts | 77° |
| 2026-04-20 21:23 | -16.42620 | -49.01304 | 17070 ft | 350 kts | 77° |
| 2026-04-20 21:23 | -16.42034 | -48.98869 | 17080 ft | 344 kts | 77° |
| 2026-04-20 21:24 | -16.41449 | -48.96458 | 17082 ft | 342 kts | 77° |
| 2026-04-20 21:24 | -16.40862 | -48.94055 | 17086 ft | 341 kts | 77° |
| 2026-04-20 21:24 | -16.40275 | -48.91655 | 17086 ft | 341 kts | 77° |
| 2026-04-20 21:24 | -16.39689 | -48.89254 | 17080 ft | 341 kts | 77° |
| 2026-04-20 21:25 | -16.39113 | -48.86884 | 17079 ft | 341 kts | 77° |
| 2026-04-20 21:25 | -16.38530 | -48.84486 | 17075 ft | 341 kts | 77° |
| 2026-04-20 21:25 | -16.37889 | -48.82102 | 17066 ft | 342 kts | 70° |
| 2026-04-20 21:25 | -16.36834 | -48.79881 | 17063 ft | 343 kts | 58° |
| 2026-04-20 21:26 | -16.35512 | -48.77805 | 17058 ft | 343 kts | 57° |
| 2026-04-20 21:26 | -16.34194 | -48.75726 | 17049 ft | 343 kts | 58° |
| 2026-04-20 21:26 | -16.32883 | -48.73648 | 16966 ft | 343 kts | 58° |
| 2026-04-20 21:26 | -16.31571 | -48.71565 | 16966 ft | 343 kts | 58° |
| 2026-04-20 21:27 | -16.30281 | -48.69519 | 16827 ft | 339 kts | 58° |
| 2026-04-20 21:27 | -16.28992 | -48.67476 | 16451 ft | 336 kts | 58° |
| 2026-04-20 21:27 | -16.27710 | -48.65453 | 16059 ft | 333 kts | 58° |
| 2026-04-20 21:27 | -16.26434 | -48.63443 | 15670 ft | 331 kts | 58° |
| 2026-04-20 21:28 | -16.25171 | -48.61452 | 15278 ft | 328 kts | 58° |
| 2026-04-20 21:28 | -16.24120 | -48.59359 | 14893 ft | 324 kts | 71° |
| 2026-04-20 21:28 | -16.23514 | -48.57108 | 14505 ft | 322 kts | 78° |
| 2026-04-20 21:28 | -16.22990 | -48.54851 | 14126 ft | 320 kts | 78° |
| 2026-04-20 21:29 | -16.22464 | -48.52604 | 13733 ft | 319 kts | 77° |
| 2026-04-20 21:29 | -16.21938 | -48.50370 | 13316 ft | 317 kts | 77° |
| 2026-04-20 21:29 | -16.21412 | -48.48154 | 12935 ft | 314 kts | 77° |
| 2026-04-20 21:29 | -16.20890 | -48.45959 | 12548 ft | 311 kts | 77° |
| 2026-04-20 21:30 | -16.20378 | -48.43807 | 12192 ft | 309 kts | 77° |
| 2026-04-20 21:30 | -16.19862 | -48.41639 | 11825 ft | 307 kts | 77° |
| 2026-04-20 21:30 | -16.19354 | -48.39492 | 11458 ft | 305 kts | 77° |
| 2026-04-20 21:30 | -16.18847 | -48.37355 | 11092 ft | 303 kts | 77° |
| 2026-04-20 21:31 | -16.18342 | -48.35231 | 10726 ft | 302 kts | 77° |
| 2026-04-20 21:31 | -16.17839 | -48.33110 | 10363 ft | 300 kts | 77° |
| 2026-04-20 21:31 | -16.17345 | -48.31027 | 10009 ft | 299 kts | 77° |
| 2026-04-20 21:31 | -16.16845 | -48.28929 | 9686 ft | 296 kts | 77° |
| 2026-04-20 21:32 | -16.16355 | -48.26869 | 9469 ft | 289 kts | 77° |
| 2026-04-20 21:32 | -16.15849 | -48.24882 | 9323 ft | 278 kts | 71° |
| 2026-04-20 21:32 | -16.14883 | -48.23216 | 9135 ft | 265 kts | 48° |
| 2026-04-20 21:32 | -16.13427 | -48.22090 | 8880 ft | 259 kts | 25° |
| 2026-04-20 21:33 | -16.11712 | -48.21545 | 8793 ft | 262 kts | 14° |
| 2026-04-20 21:33 | -16.09935 | -48.21097 | 8654 ft | 262 kts | 15° |
| 2026-04-20 21:33 | -16.08166 | -48.20642 | 8481 ft | 261 kts | 15° |
| 2026-04-20 21:33 | -16.06404 | -48.20186 | 8306 ft | 261 kts | 15° |
| 2026-04-20 21:34 | -16.04647 | -48.19731 | 8122 ft | 258 kts | 15° |
| 2026-04-20 21:34 | -16.02922 | -48.19289 | 8010 ft | 250 kts | 15° |
| 2026-04-20 21:34 | -16.01260 | -48.18865 | 7910 ft | 241 kts | 15° |
| 2026-04-20 21:34 | -15.99650 | -48.18451 | 7810 ft | 235 kts | 16° |
| 2026-04-20 21:35 | -15.98166 | -48.17784 | 7676 ft | 232 kts | 32° |
| 2026-04-20 21:35 | -15.96785 | -48.16960 | 7494 ft | 230 kts | 31° |
| 2026-04-20 21:35 | -15.95392 | -48.16132 | 7344 ft | 229 kts | 31° |
| 2026-04-20 21:35 | -15.94004 | -48.15309 | 7206 ft | 229 kts | 31° |
| 2026-04-20 21:36 | -15.92638 | -48.14499 | 7067 ft | 228 kts | 31° |
| 2026-04-20 21:36 | -15.91264 | -48.13682 | 6932 ft | 227 kts | 31° |
| 2026-04-20 21:36 | -15.89890 | -48.12868 | 6794 ft | 226 kts | 31° |
| 2026-04-20 21:36 | -15.88611 | -48.11934 | 6651 ft | 224 kts | 47° |
| 2026-04-20 21:37 | -15.87748 | -48.10618 | 6566 ft | 220 kts | 68° |
| 2026-04-20 21:37 | -15.87396 | -48.09078 | 6387 ft | 219 kts | 87° |
| 2026-04-20 21:37 | -15.87299 | -48.07510 | 6134 ft | 216 kts | 88° |
| 2026-04-20 21:37 | -15.87204 | -48.05988 | 5884 ft | 205 kts | 87° |
| 2026-04-20 21:38 | -15.87113 | -48.04565 | 5626 ft | 191 kts | 87° |
| 2026-04-20 21:38 | -15.87030 | -48.03262 | 5417 ft | 177 kts | 87° |
| 2026-04-20 21:38 | -15.86954 | -48.02077 | 5209 ft | 153 kts | 87° |
| 2026-04-20 21:38 | -15.86885 | -48.01013 | 5039 ft | 143 kts | 86° |
| 2026-04-20 21:39 | -15.86821 | -48.00006 | 4852 ft | 137 kts | 87° |
| 2026-04-20 21:39 | -15.86758 | -47.99016 | 4683 ft | 136 kts | 86° |
| 2026-04-20 21:39 | -15.86695 | -47.98037 | 4515 ft | 136 kts | 87° |
| 2026-04-20 21:39 | -15.86632 | -47.97060 | 4336 ft | 136 kts | 86° |
| 2026-04-20 21:40 | -15.86570 | -47.96078 | 4158 ft | 136 kts | 87° |
| 2026-04-20 21:40 | -15.86506 | -47.95089 | 3971 ft | 137 kts | 87° |
| 2026-04-20 21:40 | -15.86442 | -47.94096 | 3778 ft | 138 kts | 87° |
| 2026-04-20 21:40 | -15.86373 | -47.93106 | 3569 ft | 137 kts | 89° |
| 2026-04-20 21:41 | -15.86314 | -47.92137 | 3471 ft | 125 kts | 92° |
| 2026-04-20 21:41 | -15.86268 | -47.91375 | 3464 ft | 83 kts | 86° |
| 2026-04-20 21:41 | -15.86249 | -47.91061 | 3474 ft | 43 kts | 86° |
| 2026-04-20 21:41 | -15.86260 | -47.90855 | 3479 ft | 21 kts | 117° |
| 2026-04-20 21:42 | -15.86351 | -47.90741 | 3483 ft | 13 kts | 131° |
| 2026-04-20 21:42 | -15.86383 | -47.90704 | 3484 ft | 0 kts | 132° |
| 2026-04-20 21:42 | -15.86386 | -47.90701 | 3484 ft | 1 kts | 134° |
| 2026-04-20 21:42 | -15.86399 | -47.90698 | 3484 ft | 2 kts | 178° |
| 2026-04-20 21:43 | -15.86412 | -47.90713 | 3485 ft | 4 kts | 243° |
| 2026-04-20 21:43 | -15.86421 | -47.90746 | 3484 ft | 6 kts | 262° |
| 2026-04-20 21:43 | -15.86424 | -47.90795 | 3481 ft | 8 kts | 263° |
| 2026-04-20 21:43 | -15.86427 | -47.90859 | 3481 ft | 10 kts | 266° |
| 2026-04-20 21:44 | -15.86433 | -47.90924 | 3478 ft | 7 kts | 265° |
| 2026-04-20 21:44 | -15.86438 | -47.90996 | 3474 ft | 13 kts | 267° |
| 2026-04-20 21:44 | -15.86442 | -47.91098 | 3470 ft | 11 kts | 267° |
| 2026-04-20 21:44 | -15.86448 | -47.91188 | 3469 ft | 13 kts | 265° |
| 2026-04-20 21:45 | -15.86456 | -47.91290 | 3469 ft | 15 kts | 266° |
| 2026-04-20 21:45 | -15.86463 | -47.91409 | 3467 ft | 18 kts | 266° |
| 2026-04-20 21:45 | -15.86471 | -47.91532 | 3464 ft | 15 kts | 266° |
| 2026-04-20 21:45 | -15.86475 | -47.91599 | 3465 ft | 5 kts | 266° |
| 2026-04-20 21:46 | -15.86490 | -47.91629 | 3465 ft | 4 kts | 211° |
| 2026-04-20 21:46 | -15.86507 | -47.91630 | 3466 ft | 1 kts | 178° |
| 2026-04-20 21:46 | -15.86511 | -47.91630 | 3467 ft | 0 kts | 178° |
| 2026-04-20 21:46 | -15.86518 | -47.91629 | 3467 ft | 2 kts | 178° |
| 2026-04-20 21:47 | -15.86541 | -47.91629 | 3466 ft | 5 kts | 179° |
| 2026-04-20 21:47 | -15.86585 | -47.91626 | 3470 ft | 8 kts | 174° |
| 2026-04-20 21:47 | -15.86661 | -47.91620 | 3471 ft | 14 kts | 176° |
| 2026-04-20 21:47 | -15.86760 | -47.91613 | 3472 ft | 15 kts | 177° |
| 2026-04-20 21:48 | -15.86839 | -47.91608 | 3472 ft | 11 kts | 177° |
| 2026-04-20 21:48 | -15.86905 | -47.91604 | 3472 ft | 4 kts | 175° |
| 2026-04-20 21:48 | -15.86932 | -47.91602 | 3471 ft | 5 kts | 174° |
| 2026-04-20 21:48 | -15.86971 | -47.91608 | 3472 ft | 6 kts | 218° |
| 2026-04-20 21:49 | -15.86979 | -47.91654 | 3472 ft | 3 kts | 266° |
| 2026-04-20 21:49 | -15.86980 | -47.91659 | 3472 ft | 1 kts | 266° |
| 2026-04-20 21:49 | -15.86980 | -47.91670 | 3472 ft | 2 kts | 268° |
| 2026-04-20 21:49 | -15.86983 | -47.91685 | 3472 ft | 2 kts | 244° |
| 2026-04-20 21:50 | -15.86996 | -47.91690 | 3472 ft | 2 kts | 189° |
| 2026-04-20 21:50 | -15.87016 | -47.91689 | 3472 ft | 4 kts | 174° |
| 2026-04-20 21:50 | -15.87047 | -47.91686 | 3471 ft | 5 kts | 175° |
| 2026-04-20 21:50 | -15.87081 | -47.91683 | 3471 ft | 0 kts | 175° |
| 2026-04-20 21:51 | -15.87089 | -47.91682 | 3472 ft | 2 kts | 176° |
| 2026-04-20 21:51 | -15.87108 | -47.91681 | 3472 ft | 3 kts | 178° |
| 2026-04-20 21:51 | -15.87138 | -47.91681 | 3471 ft | 5 kts | 180° |
| 2026-04-20 21:51 | -15.87166 | -47.91680 | 3472 ft | 0 kts | 176° |
| 2026-04-20 21:52 | -15.87174 | -47.91679 | 3472 ft | 2 kts | 176° |
| 2026-04-20 21:52 | -15.87192 | -47.91678 | 3471 ft | 3 kts | 176° |
| 2026-04-20 21:52 | -15.87222 | -47.91676 | 3472 ft | 5 kts | 182° |
| 2026-04-20 21:52 | -15.87236 | -47.91701 | 3471 ft | 4 kts | 277° |
| 2026-04-20 21:53 | -15.87230 | -47.91711 | 3472 ft | 0 kts | 304° |
| 2026-04-20 21:53 | -15.87230 | -47.91712 | 3472 ft | 0 kts | 299° |
| 2026-04-20 21:53 | -15.87228 | -47.91718 | 3471 ft | 2 kts | 300° |
| 2026-04-20 21:54 | -15.87223 | -47.91729 | 3471 ft | 0 kts | 296° |